Zoar, Massachusetts
Current Conditions -  °F | °C
As of 6:52 AM on Thursday 29 Jan 2015 (Local Time) from KAQW Reporting Station
Clear Clear  
Wind Chill: -9°   Ceiling: Unl
Heat Index: -9°   Visibility: 10mi
Dew Point: -15°   Wind: 0mph
Humidity: 75%   Direction: NA
Pressure: 30.31"   Gusts: NA
Location:  42.6912°N, 72.9302°W
Report Text: KAQW 291152Z AUTO 00000KT 10SM CLR M23/M26 A3031 RMK AO2 SLP283 I6000 T12281261 11189 21228 55001
Loading
Personal Weather Stations






























Interactive Weather Map New forecast layout! Learn more

10-Day Weather Forecast

Advertisements
Track Severe Weather on mobile